createdAt,value
2023-01-31T00:00:28.725Z,23.25
2023-01-31T00:01:33.798Z,22.52
2023-01-31T00:02:36.343Z,23.08
2023-01-31T00:03:40.420Z,23.83
2023-01-31T00:04:42.768Z,23.13
2023-01-31T00:05:45.233Z,23.80
2023-01-31T00:06:52.373Z,21.42
2023-01-31T00:07:54.872Z,23.23
2023-01-31T00:08:58.412Z,22.33
2023-01-31T00:10:00.783Z,21.83
2023-01-31T00:11:03.168Z,23.00
2023-01-31T00:12:05.766Z,23.60
2023-01-31T00:13:08.380Z,23.05
2023-01-31T00:14:14.944Z,22.70
2023-01-31T00:15:18.729Z,22.60
2023-01-31T00:16:23.134Z,24.10
2023-01-31T00:17:25.547Z,22.98
2023-01-31T00:18:28.275Z,23.88
2023-01-31T00:19:30.635Z,23.52
2023-01-31T00:20:33.176Z,23.10
2023-01-31T00:21:36.182Z,20.00
2023-01-31T00:22:39.032Z,22.10
2023-01-31T00:23:43.494Z,22.52
2023-01-31T00:24:45.814Z,20.80
2023-01-31T00:25:48.390Z,22.42
2023-01-31T00:26:57.050Z,22.40
2023-01-31T00:28:01.483Z,21.58
2023-01-31T00:29:05.510Z,22.27
2023-01-31T00:30:08.738Z,23.05
2023-01-31T00:31:13.313Z,21.98
2023-01-31T00:32:16.023Z,23.05
2023-01-31T00:33:18.737Z,23.45
2023-01-31T00:34:21.827Z,19.95
2023-01-31T00:35:24.430Z,22.88
2023-01-31T00:36:29.404Z,23.05
2023-01-31T00:37:31.883Z,20.50
2023-01-31T00:38:34.843Z,21.85
2023-01-31T00:39:37.319Z,22.83
2023-01-31T00:40:39.860Z,23.88
2023-01-31T00:41:42.223Z,25.73
2023-01-31T00:42:48.451Z,24.15
2023-01-31T00:43:51.348Z,23.92
2023-01-31T00:44:53.653Z,24.58
2023-01-31T00:45:56.038Z,24.95
2023-01-31T00:46:59.773Z,22.85
2023-01-31T00:48:02.483Z,23.35
2023-01-31T00:49:05.238Z,23.30
2023-01-31T00:50:08.826Z,24.88
2023-01-31T00:51:11.224Z,24.58
2023-01-31T00:52:13.853Z,24.33
2023-01-31T00:53:17.759Z,25.13
2023-01-31T00:54:20.191Z,26.02
2023-01-31T00:55:22.665Z,25.23
2023-01-31T00:56:26.027Z,25.80
2023-01-31T00:57:28.661Z,24.92
2023-01-31T00:58:31.139Z,25.95
2023-01-31T00:59:34.289Z,26.13
2023-01-31T01:00:37.559Z,23.45
2023-01-31T01:01:40.473Z,23.73
2023-01-31T01:02:42.979Z,25.80
2023-01-31T01:03:46.478Z,26.10
2023-01-31T01:04:49.169Z,26.77
2023-01-31T01:05:51.510Z,24.90
2023-01-31T01:06:53.948Z,25.42
2023-01-31T01:07:56.526Z,26.02
2023-01-31T01:09:00.139Z,26.83
2023-01-31T01:10:02.778Z,26.40
2023-01-31T01:11:10.761Z,24.52
2023-01-31T01:12:13.050Z,26.75
2023-01-31T01:13:15.594Z,26.45
2023-01-31T01:14:18.396Z,26.02
2023-01-31T01:15:21.114Z,27.27
2023-01-31T01:16:35.195Z,24.80
2023-01-31T01:17:38.777Z,23.83
2023-01-31T01:18:41.660Z,24.20
2023-01-31T01:19:44.161Z,26.83
2023-01-31T01:20:46.496Z,25.05
2023-01-31T01:21:49.060Z,26.42
2023-01-31T01:22:51.485Z,26.42
2023-01-31T01:23:56.603Z,25.65
2023-01-31T01:24:58.910Z,25.17
2023-01-31T01:26:01.201Z,28.52
2023-01-31T01:27:05.314Z,24.77
2023-01-31T01:28:07.712Z,24.58
2023-01-31T01:29:11.076Z,26.48
2023-01-31T01:30:13.692Z,26.42
2023-01-31T01:31:17.662Z,27.27
2023-01-31T01:32:20.867Z,26.83
2023-01-31T01:33:23.528Z,25.92
2023-01-31T01:34:26.050Z,26.38
2023-01-31T01:35:28.462Z,26.58
2023-01-31T01:36:37.384Z,26.60
2023-01-31T01:37:40.186Z,25.00
2023-01-31T01:38:43.819Z,26.02
2023-01-31T01:39:50.602Z,25.98
2023-01-31T01:40:53.373Z,25.58
2023-01-31T01:41:57.527Z,24.85
2023-01-31T01:43:01.015Z,25.42
2023-01-31T01:44:24.756Z,26.45
2023-01-31T01:45:27.424Z,23.60
2023-01-31T01:46:36.257Z,26.10
2023-01-31T01:47:59.998Z,24.25
2023-01-31T01:49:27.717Z,23.50
2023-01-31T01:50:46.168Z,23.10
2023-01-31T01:51:50.244Z,22.55
2023-01-31T01:52:56.404Z,24.23
2023-01-31T01:54:03.433Z,24.65
2023-01-31T01:55:27.062Z,23.17
2023-01-31T01:56:37.704Z,24.58
2023-01-31T01:57:44.575Z,22.90
2023-01-31T01:59:12.881Z,24.73
2023-01-31T02:00:27.563Z,24.42
2023-01-31T02:01:36.137Z,23.52
2023-01-31T02:02:45.968Z,22.75
2023-01-31T02:03:49.235Z,21.90
2023-01-31T02:04:52.708Z,23.33
2023-01-31T02:06:02.246Z,23.48
2023-01-31T02:07:05.313Z,23.05
2023-01-31T02:08:08.545Z,25.50
2023-01-31T02:09:20.629Z,23.88
2023-01-31T02:10:38.747Z,22.58
2023-01-31T02:11:42.377Z,22.10
2023-01-31T02:12:46.429Z,22.90
2023-01-31T02:13:51.397Z,23.05
2023-01-31T02:14:54.244Z,23.98
2023-01-31T02:15:57.651Z,23.13
2023-01-31T02:17:00.376Z,23.48
2023-01-31T02:18:03.387Z,25.55
2023-01-31T02:19:18.189Z,22.60
2023-01-31T02:20:41.748Z,24.98
2023-01-31T02:22:22.019Z,23.58
2023-01-31T02:23:44.329Z,22.40
2023-01-31T02:25:22.694Z,23.25
2023-01-31T02:26:47.418Z,21.77
2023-01-31T02:28:16.214Z,21.58
2023-01-31T02:29:26.722Z,22.25
2023-01-31T02:30:32.220Z,19.27
2023-01-31T02:31:56.455Z,23.67
2023-01-31T02:33:21.800Z,21.05
2023-01-31T02:34:55.160Z,20.70
2023-01-31T02:35:57.527Z,20.80
2023-01-31T02:37:03.196Z,23.50
2023-01-31T02:38:11.422Z,22.23
2023-01-31T02:39:40.451Z,22.98
2023-01-31T02:40:54.997Z,22.90
2023-01-31T02:42:01.473Z,23.20
2023-01-31T02:43:15.547Z,23.65
2023-01-31T02:44:51.421Z,23.52
2023-01-31T02:46:00.976Z,21.92
2023-01-31T02:47:11.752Z,23.02
2023-01-31T02:48:34.609Z,22.17
2023-01-31T02:49:46.895Z,23.25
2023-01-31T02:51:11.374Z,23.17
2023-01-31T02:52:56.748Z,21.60
2023-01-31T02:54:06.078Z,20.45
2023-01-31T02:55:39.244Z,21.52
2023-01-31T02:56:44.366Z,22.17
2023-01-31T02:57:50.398Z,20.55
2023-01-31T02:59:08.854Z,21.63
2023-01-31T03:00:13.788Z,20.42
2023-01-31T03:01:21.864Z,20.92
2023-01-31T03:02:25.723Z,22.77
2023-01-31T03:03:31.497Z,23.48
2023-01-31T03:04:36.952Z,23.95
2023-01-31T03:05:39.306Z,23.83
2023-01-31T03:06:54.636Z,23.17
2023-01-31T03:08:00.345Z,22.27
2023-01-31T03:09:08.879Z,21.63
2023-01-31T03:10:41.764Z,23.67
2023-01-31T03:12:01.610Z,21.92
2023-01-31T03:13:25.770Z,22.02
2023-01-31T03:14:47.660Z,21.83
2023-01-31T03:16:20.665Z,21.35
2023-01-31T03:17:32.114Z,20.25
2023-01-31T03:18:46.840Z,20.80
2023-01-31T03:20:07.798Z,21.95
2023-01-31T03:21:18.493Z,22.55
2023-01-31T03:22:27.564Z,23.05
2023-01-31T03:23:33.586Z,22.63
2023-01-31T03:24:37.181Z,22.85
2023-01-31T03:25:40.481Z,22.35
2023-01-31T03:26:45.711Z,22.75
2023-01-31T03:27:56.819Z,19.05
2023-01-31T03:29:03.142Z,22.67
2023-01-31T03:30:14.409Z,22.75
2023-01-31T03:31:36.917Z,21.23
2023-01-31T03:32:51.735Z,20.13
2023-01-31T03:34:07.005Z,20.73
2023-01-31T03:35:10.279Z,20.88
2023-01-31T03:36:24.703Z,22.02
2023-01-31T03:37:57.657Z,21.02
2023-01-31T03:39:11.179Z,22.15
2023-01-31T03:40:23.801Z,22.13
2023-01-31T03:41:46.732Z,21.55
2023-01-31T03:42:57.832Z,21.13
2023-01-31T03:44:15.779Z,21.20
2023-01-31T03:45:36.822Z,21.75
2023-01-31T03:46:48.210Z,20.10
2023-01-31T03:47:52.060Z,20.75
2023-01-31T03:48:59.077Z,21.45
2023-01-31T03:50:10.742Z,21.35
2023-01-31T03:51:19.735Z,22.65
2023-01-31T03:52:33.727Z,23.23
2023-01-31T03:53:42.136Z,21.67
2023-01-31T03:54:55.052Z,22.27
2023-01-31T03:56:01.026Z,22.83
2023-01-31T03:57:14.341Z,22.80
2023-01-31T03:58:20.039Z,21.50
2023-01-31T03:59:28.580Z,21.88
2023-01-31T04:00:37.158Z,23.30
2023-01-31T04:01:45.364Z,22.55
2023-01-31T04:02:56.805Z,22.50
2023-01-31T04:04:04.677Z,25.13
2023-01-31T04:05:13.803Z,23.73
2023-01-31T04:06:18.584Z,23.63
2023-01-31T04:07:22.367Z,31.90
2023-01-31T04:08:25.536Z,28.73
2023-01-31T04:09:38.621Z,26.33
2023-01-31T04:10:41.624Z,26.33
2023-01-31T04:11:48.632Z,27.05
2023-01-31T04:12:51.363Z,28.90
2023-01-31T04:13:54.182Z,31.10
2023-01-31T04:14:56.577Z,31.52
2023-01-31T04:15:59.146Z,28.08
2023-01-31T04:17:01.596Z,28.83
2023-01-31T04:18:04.198Z,27.17
2023-01-31T04:19:06.662Z,30.05
2023-01-31T04:20:10.835Z,31.33
2023-01-31T04:21:17.695Z,29.50
2023-01-31T04:22:20.115Z,29.60
2023-01-31T04:23:22.448Z,30.42
2023-01-31T04:24:24.857Z,28.13
2023-01-31T04:25:27.364Z,27.10
2023-01-31T04:26:29.837Z,28.75
2023-01-31T04:27:33.207Z,27.70
2023-01-31T04:28:35.662Z,28.42
2023-01-31T04:29:38.136Z,29.23
2023-01-31T04:30:40.501Z,28.27
2023-01-31T04:31:43.105Z,28.17
2023-01-31T04:32:45.612Z,28.25
2023-01-31T04:33:48.072Z,29.17
2023-01-31T04:34:50.543Z,29.67
2023-01-31T04:35:53.310Z,29.48
2023-01-31T04:36:55.599Z,30.42
2023-01-31T04:37:58.153Z,29.17
2023-01-31T04:39:01.148Z,34.05
2023-01-31T04:40:03.793Z,36.67
2023-01-31T04:41:06.327Z,38.72
2023-01-31T04:42:08.798Z,43.58
2023-01-31T04:43:12.341Z,43.88
2023-01-31T04:44:14.808Z,44.95
2023-01-31T04:45:17.208Z,45.28
2023-01-31T04:46:19.820Z,40.53
2023-01-31T04:47:22.215Z,38.53
2023-01-31T04:48:24.654Z,36.88
2023-01-31T04:49:27.356Z,37.63
2023-01-31T04:50:30.253Z,37.35
2023-01-31T04:51:32.996Z,35.63
2023-01-31T04:52:35.813Z,36.92
2023-01-31T04:53:38.248Z,36.88
2023-01-31T04:54:42.134Z,37.55
2023-01-31T04:55:44.458Z,36.08
2023-01-31T04:56:46.850Z,37.75
2023-01-31T04:57:49.448Z,39.67
2023-01-31T04:58:51.887Z,38.75
2023-01-31T04:59:54.342Z,37.72
2023-01-31T05:00:56.953Z,38.38
2023-01-31T05:01:59.358Z,38.35
2023-01-31T05:03:02.346Z,38.00
2023-01-31T05:04:04.977Z,38.08
2023-01-31T05:05:08.586Z,40.08
2023-01-31T05:06:11.059Z,41.72
2023-01-31T05:07:13.695Z,38.58
2023-01-31T05:08:16.281Z,27.48
2023-01-31T05:09:18.707Z,31.05
2023-01-31T05:10:21.011Z,35.47
2023-01-31T05:11:23.769Z,34.85
2023-01-31T05:12:27.304Z,30.40
2023-01-31T05:13:33.071Z,29.40
2023-01-31T05:14:36.404Z,33.47
2023-01-31T05:15:40.631Z,31.75
2023-01-31T05:17:54.452Z,30.00
2023-01-31T05:18:57.569Z,28.08
2023-01-31T05:20:00.226Z,30.08
2023-01-31T05:21:03.991Z,30.90
2023-01-31T05:22:06.559Z,31.33
2023-01-31T05:23:09.210Z,28.25
2023-01-31T05:24:11.656Z,30.45
2023-01-31T05:25:14.356Z,27.17
2023-01-31T05:26:16.941Z,28.63
2023-01-31T05:27:20.146Z,33.35
2023-01-31T05:28:24.180Z,32.53
2023-01-31T05:29:32.610Z,29.60
2023-01-31T05:30:36.301Z,31.02
2023-01-31T05:31:38.786Z,29.20
2023-01-31T05:32:41.674Z,30.05
2023-01-31T05:33:44.873Z,32.13
2023-01-31T05:34:47.417Z,33.03
2023-01-31T05:35:50.354Z,37.05
2023-01-31T05:36:53.249Z,35.28
2023-01-31T05:37:55.811Z,32.65
2023-01-31T05:38:58.215Z,32.85
2023-01-31T05:40:00.942Z,30.08
2023-01-31T05:41:03.371Z,30.42
2023-01-31T05:42:05.849Z,28.02
2023-01-31T05:43:08.816Z,31.25
2023-01-31T05:44:12.470Z,27.67
2023-01-31T05:45:16.804Z,33.35
2023-01-31T05:46:19.348Z,29.58
2023-01-31T05:47:23.705Z,30.65
2023-01-31T05:49:33.700Z,27.88
2023-01-31T05:50:36.508Z,28.65
2023-01-31T05:51:44.656Z,29.90
2023-01-31T05:52:52.591Z,30.60
2023-01-31T05:53:55.143Z,27.80
2023-01-31T05:54:57.588Z,28.75
2023-01-31T05:56:00.411Z,28.92
2023-01-31T05:57:02.941Z,27.45
2023-01-31T05:58:05.389Z,27.00
2023-01-31T05:59:07.813Z,28.45
2023-01-31T06:00:10.951Z,30.10
2023-01-31T06:01:22.892Z,28.73
2023-01-31T06:02:25.542Z,27.65
2023-01-31T06:03:27.957Z,29.50
2023-01-31T06:04:30.853Z,29.33
2023-01-31T06:05:34.009Z,29.10
2023-01-31T06:06:36.485Z,29.85
2023-01-31T06:07:39.387Z,28.42
2023-01-31T06:08:45.002Z,29.45
2023-01-31T06:09:47.595Z,29.45
2023-01-31T06:10:50.026Z,35.38
2023-01-31T06:11:52.416Z,32.67
2023-01-31T06:12:54.837Z,31.50
2023-01-31T06:13:59.445Z,31.17
2023-01-31T06:15:04.889Z,30.30
2023-01-31T06:16:07.647Z,35.20
2023-01-31T06:17:10.764Z,33.58
2023-01-31T06:18:13.483Z,31.42
2023-01-31T06:19:16.178Z,36.03
2023-01-31T06:20:18.770Z,34.65
2023-01-31T06:21:21.361Z,34.25
2023-01-31T06:22:23.945Z,34.03
2023-01-31T06:23:26.334Z,33.83
2023-01-31T06:24:29.196Z,35.42
2023-01-31T06:25:32.101Z,34.38
2023-01-31T06:26:34.619Z,32.75
2023-01-31T06:27:37.095Z,27.42
2023-01-31T06:28:39.649Z,33.53
2023-01-31T06:29:42.250Z,36.10
2023-01-31T06:30:45.035Z,35.33
2023-01-31T06:31:47.496Z,35.42
2023-01-31T06:32:49.934Z,33.83
2023-01-31T06:33:52.380Z,31.73
2023-01-31T06:34:54.706Z,31.40
2023-01-31T06:36:00.147Z,29.60
2023-01-31T06:37:03.339Z,28.67
2023-01-31T06:38:06.650Z,27.77
2023-01-31T06:39:11.343Z,25.23
2023-01-31T06:40:13.994Z,24.17
2023-01-31T06:41:16.624Z,24.15
2023-01-31T06:42:19.058Z,27.65
2023-01-31T06:43:21.651Z,27.35
2023-01-31T06:44:25.909Z,27.58
2023-01-31T06:45:29.387Z,26.05
2023-01-31T06:46:31.901Z,28.55
2023-01-31T06:47:34.363Z,28.38
2023-01-31T06:48:36.937Z,27.95
2023-01-31T06:49:39.797Z,28.45
2023-01-31T06:50:42.859Z,29.48
2023-01-31T06:51:45.553Z,29.52
2023-01-31T06:52:48.170Z,29.17
2023-01-31T06:53:53.175Z,29.02
2023-01-31T06:54:55.560Z,28.17
2023-01-31T06:55:58.209Z,29.17
2023-01-31T06:57:00.815Z,26.95
2023-01-31T06:58:03.274Z,31.00
2023-01-31T06:59:05.801Z,29.45
2023-01-31T07:00:09.045Z,29.02
2023-01-31T07:01:14.563Z,29.15
2023-01-31T07:02:17.365Z,30.88
2023-01-31T07:03:19.893Z,29.92
2023-01-31T07:04:22.545Z,30.48
2023-01-31T07:05:24.959Z,36.08
2023-01-31T07:06:28.417Z,40.05
2023-01-31T07:07:36.590Z,41.70
2023-01-31T07:08:39.730Z,41.38
2023-01-31T07:09:42.103Z,36.97
2023-01-31T07:10:51.665Z,38.17
2023-01-31T07:11:54.816Z,42.63
2023-01-31T07:12:57.208Z,40.55
2023-01-31T07:14:02.483Z,35.25
2023-01-31T07:15:05.431Z,35.15
2023-01-31T07:16:08.289Z,36.00
2023-01-31T07:17:11.601Z,29.30
2023-01-31T07:18:14.355Z,26.58
2023-01-31T07:19:16.762Z,30.15
2023-01-31T07:20:19.540Z,26.95
2023-01-31T07:21:23.305Z,22.98
2023-01-31T07:22:25.622Z,22.65
2023-01-31T07:23:28.003Z,24.67
2023-01-31T07:24:31.075Z,23.13
2023-01-31T07:25:34.333Z,26.52
2023-01-31T07:26:36.747Z,24.30
2023-01-31T07:27:39.128Z,24.33
2023-01-31T07:28:41.497Z,21.50
2023-01-31T07:29:44.344Z,23.05
2023-01-31T07:30:48.067Z,21.85
2023-01-31T07:31:51.387Z,21.70
2023-01-31T07:32:54.041Z,22.45
2023-01-31T07:33:58.679Z,22.35
2023-01-31T07:35:01.077Z,20.55
2023-01-31T07:36:04.826Z,20.48
2023-01-31T07:37:07.319Z,21.35
2023-01-31T07:38:11.246Z,23.17
2023-01-31T07:40:17.007Z,16.85
2023-01-31T07:41:19.402Z,16.92
2023-01-31T07:42:22.024Z,16.92
2023-01-31T07:43:24.682Z,17.35
2023-01-31T07:44:27.195Z,17.65
2023-01-31T07:45:29.703Z,17.65
2023-01-31T07:46:32.283Z,16.48
2023-01-31T07:47:34.631Z,18.40
2023-01-31T07:48:37.722Z,17.20
2023-01-31T07:49:40.121Z,16.25
2023-01-31T07:50:42.813Z,18.08
2023-01-31T07:51:45.172Z,16.00
2023-01-31T07:52:49.303Z,16.17
2023-01-31T07:53:51.837Z,14.48
2023-01-31T07:54:54.199Z,14.85
2023-01-31T07:56:06.095Z,15.05
2023-01-31T07:57:08.521Z,15.73
2023-01-31T07:58:11.235Z,15.38
2023-01-31T07:59:13.773Z,15.60
2023-01-31T08:00:34.976Z,15.23
2023-01-31T08:01:56.090Z,15.13
2023-01-31T08:03:16.608Z,14.63
2023-01-31T08:04:21.937Z,14.82
2023-01-31T08:05:25.455Z,15.20
2023-01-31T08:06:30.667Z,17.50
2023-01-31T08:07:33.596Z,13.10
2023-01-31T08:08:37.612Z,20.10
2023-01-31T08:09:40.459Z,16.33
2023-01-31T08:10:43.279Z,16.85
2023-01-31T08:11:46.163Z,17.70
2023-01-31T08:12:50.170Z,18.50
2023-01-31T08:13:52.581Z,19.70
2023-01-31T08:14:55.035Z,19.27
2023-01-31T08:15:57.700Z,20.73
2023-01-31T08:17:00.626Z,20.40
2023-01-31T08:18:06.131Z,22.55
2023-01-31T08:19:10.557Z,21.40
2023-01-31T08:20:13.441Z,24.45
2023-01-31T08:21:17.272Z,23.42
2023-01-31T08:22:19.715Z,24.83
2023-01-31T08:23:22.080Z,24.15
2023-01-31T08:24:24.357Z,23.48
2023-01-31T08:25:29.420Z,27.35
2023-01-31T08:26:32.025Z,27.00
2023-01-31T08:27:34.636Z,25.75
2023-01-31T08:28:37.686Z,26.48
2023-01-31T08:29:40.184Z,24.52
2023-01-31T08:30:48.310Z,26.17
2023-01-31T08:31:52.921Z,26.92
2023-01-31T08:32:56.105Z,27.70
2023-01-31T08:33:58.476Z,24.42
2023-01-31T08:35:00.863Z,24.42
2023-01-31T08:36:16.720Z,23.02
2023-01-31T08:37:19.283Z,22.15
2023-01-31T08:38:22.098Z,22.27
2023-01-31T08:39:24.664Z,22.00
2023-01-31T08:40:27.533Z,20.90
2023-01-31T08:41:31.550Z,22.35
2023-01-31T08:42:33.986Z,21.48
2023-01-31T08:43:52.882Z,21.98
2023-01-31T08:44:58.057Z,22.45
2023-01-31T08:46:00.655Z,22.67
2023-01-31T08:47:05.647Z,23.75
2023-01-31T08:48:08.831Z,23.73
2023-01-31T08:49:12.185Z,24.33
2023-01-31T08:50:26.919Z,24.35
2023-01-31T08:51:31.306Z,22.27
2023-01-31T08:52:35.653Z,23.10
2023-01-31T08:53:45.394Z,21.30
2023-01-31T08:54:48.161Z,20.65
2023-01-31T08:55:50.653Z,20.15
2023-01-31T08:56:53.296Z,22.40
2023-01-31T08:57:59.814Z,19.35
2023-01-31T08:59:02.926Z,17.10
2023-01-31T09:00:08.901Z,18.35
2023-01-31T09:01:17.025Z,15.38
2023-01-31T09:02:19.731Z,14.68
2023-01-31T09:03:22.283Z,15.10
2023-01-31T09:04:24.628Z,13.13
2023-01-31T09:05:28.990Z,14.05
2023-01-31T09:06:31.613Z,13.48
2023-01-31T09:07:35.175Z,12.88
2023-01-31T09:08:38.551Z,14.23
2023-01-31T09:09:41.115Z,13.80
2023-01-31T09:10:43.766Z,14.63
2023-01-31T09:11:46.259Z,14.73
2023-01-31T09:12:48.955Z,19.60
2023-01-31T09:13:51.728Z,16.25
2023-01-31T09:14:54.279Z,19.05
2023-01-31T09:16:00.591Z,23.35
2023-01-31T09:17:03.689Z,23.75
2023-01-31T09:18:06.392Z,25.65
2023-01-31T09:19:08.916Z,26.23
2023-01-31T09:20:11.922Z,30.10
2023-01-31T09:21:17.986Z,29.50
2023-01-31T09:22:20.826Z,27.00
2023-01-31T09:23:23.651Z,22.48
2023-01-31T09:24:26.094Z,20.30
2023-01-31T09:25:43.865Z,18.48
2023-01-31T09:26:49.137Z,17.33
2023-01-31T09:27:53.838Z,18.52
2023-01-31T09:28:58.086Z,19.50
2023-01-31T09:31:08.780Z,16.98
2023-01-31T09:32:11.332Z,17.17
2023-01-31T09:33:13.759Z,14.52
2023-01-31T09:34:17.051Z,13.63
2023-01-31T09:35:22.019Z,12.60
2023-01-31T09:36:25.615Z,11.38
2023-01-31T09:37:31.260Z,11.80
2023-01-31T09:38:35.285Z,9.90
2023-01-31T09:39:37.764Z,10.68
2023-01-31T09:40:41.306Z,10.25
2023-01-31T09:41:52.160Z,9.63
2023-01-31T09:42:56.152Z,10.23
2023-01-31T09:44:11.831Z,10.98
2023-01-31T09:45:23.007Z,11.20
2023-01-31T09:46:30.004Z,10.93
2023-01-31T09:47:54.745Z,10.88
2023-01-31T09:48:59.820Z,12.18
2023-01-31T09:50:33.289Z,11.10
2023-01-31T09:51:37.431Z,10.05
2023-01-31T09:52:40.099Z,10.90
2023-01-31T09:53:43.424Z,10.48
2023-01-31T09:54:45.989Z,11.85
2023-01-31T09:56:06.653Z,10.90
2023-01-31T09:57:29.918Z,12.13
2023-01-31T09:58:42.816Z,10.88
2023-01-31T09:59:49.716Z,11.85
2023-01-31T10:01:19.301Z,11.48
2023-01-31T10:02:51.200Z,10.82
2023-01-31T10:04:18.336Z,9.73
2023-01-31T10:05:44.719Z,12.18
2023-01-31T10:06:56.138Z,10.88
2023-01-31T10:08:36.272Z,11.43
2023-01-31T10:09:44.776Z,10.60
2023-01-31T10:10:56.987Z,10.93
2023-01-31T10:12:13.107Z,10.18
2023-01-31T10:13:21.340Z,10.40
2023-01-31T10:14:43.590Z,11.52
2023-01-31T10:16:15.079Z,12.77
2023-01-31T10:17:28.266Z,13.05
2023-01-31T10:18:34.722Z,10.68
2023-01-31T10:19:47.746Z,10.90
2023-01-31T10:20:55.440Z,8.45
2023-01-31T10:22:04.513Z,9.63
2023-01-31T10:23:12.204Z,9.75
2023-01-31T10:24:47.591Z,10.07
2023-01-31T10:25:59.736Z,9.25
2023-01-31T10:27:10.570Z,9.40
2023-01-31T10:28:22.452Z,9.77
2023-01-31T10:29:56.900Z,9.20
2023-01-31T10:31:27.967Z,8.90
2023-01-31T10:32:44.536Z,8.48
2023-01-31T10:34:03.747Z,8.05
2023-01-31T10:35:18.082Z,6.82
2023-01-31T10:36:36.644Z,6.57
2023-01-31T10:37:47.695Z,7.63
2023-01-31T10:39:02.782Z,6.53
2023-01-31T10:40:26.158Z,6.57
2023-01-31T10:41:53.044Z,5.20
2023-01-31T10:43:01.271Z,5.85
2023-01-31T10:44:12.304Z,5.22
2023-01-31T10:45:22.547Z,5.25
2023-01-31T10:47:41.539Z,5.63
2023-01-31T10:48:48.093Z,5.38
2023-01-31T10:49:51.092Z,5.57
2023-01-31T10:51:12.168Z,6.05
2023-01-31T10:52:36.552Z,5.90
2023-01-31T10:53:53.924Z,5.40
2023-01-31T10:55:41.862Z,7.55
2023-01-31T10:56:47.499Z,6.95
2023-01-31T10:57:52.013Z,6.68
2023-01-31T10:58:56.774Z,6.03
2023-01-31T10:59:59.588Z,6.00
2023-01-31T11:01:12.241Z,5.70
2023-01-31T11:02:23.941Z,6.20
2023-01-31T11:03:26.784Z,6.03
2023-01-31T11:04:32.776Z,6.53
2023-01-31T11:05:42.194Z,7.07
2023-01-31T11:06:45.116Z,6.93
2023-01-31T11:07:48.217Z,6.82
2023-01-31T11:09:02.103Z,6.88
2023-01-31T11:10:25.897Z,6.90
2023-01-31T11:11:30.159Z,6.43
2023-01-31T11:12:52.847Z,6.05
2023-01-31T11:14:02.845Z,5.88
2023-01-31T11:15:17.584Z,6.53
2023-01-31T11:16:20.446Z,9.32
2023-01-31T11:17:24.735Z,8.35
2023-01-31T11:18:44.051Z,7.32
2023-01-31T11:19:52.428Z,7.63
2023-01-31T11:20:55.402Z,6.70
2023-01-31T11:21:58.582Z,7.07
2023-01-31T11:23:02.583Z,6.95
2023-01-31T11:25:23.190Z,7.78
2023-01-31T11:26:37.283Z,9.13
2023-01-31T11:27:41.110Z,6.97
2023-01-31T11:28:52.869Z,6.78
2023-01-31T11:29:59.893Z,6.80
2023-01-31T11:31:06.729Z,7.13
2023-01-31T11:32:20.085Z,7.00
2023-01-31T11:33:39.385Z,6.45
2023-01-31T11:34:58.396Z,7.95
2023-01-31T11:36:08.826Z,6.10
2023-01-31T11:37:18.819Z,5.85
2023-01-31T11:38:23.661Z,6.00
2023-01-31T11:39:31.943Z,6.35
2023-01-31T11:40:42.893Z,5.82
2023-01-31T11:41:48.580Z,5.75
2023-01-31T11:42:57.558Z,6.05
2023-01-31T11:44:20.057Z,7.10
2023-01-31T11:45:24.821Z,7.05
2023-01-31T11:46:27.416Z,5.53
2023-01-31T11:47:42.797Z,5.22
2023-01-31T11:48:46.087Z,5.85
2023-01-31T11:49:50.724Z,6.25
2023-01-31T11:51:02.150Z,5.35
2023-01-31T11:52:13.850Z,4.60
2023-01-31T11:53:32.567Z,4.50
2023-01-31T11:54:35.334Z,4.35
2023-01-31T11:55:39.866Z,5.90
2023-01-31T11:56:42.555Z,4.75
2023-01-31T11:57:45.530Z,4.28
2023-01-31T11:58:53.539Z,4.65
2023-01-31T11:59:57.573Z,4.93
2023-01-31T12:01:13.063Z,3.70
2023-01-31T12:02:37.172Z,4.25
2023-01-31T12:03:55.239Z,4.90
2023-01-31T12:05:13.093Z,6.90
2023-01-31T12:06:27.161Z,6.22
2023-01-31T12:07:42.558Z,5.15
2023-01-31T12:08:44.977Z,5.28
2023-01-31T12:09:48.419Z,5.30
2023-01-31T12:10:51.050Z,4.30
2023-01-31T12:12:06.391Z,4.53
2023-01-31T12:13:20.995Z,6.20
2023-01-31T12:14:27.267Z,5.55
2023-01-31T12:15:32.047Z,3.80
2023-01-31T12:16:37.740Z,5.22
2023-01-31T12:17:46.886Z,4.40
2023-01-31T12:19:07.990Z,4.53
2023-01-31T12:20:27.733Z,4.03
2023-01-31T12:22:00.046Z,5.07
2023-01-31T12:23:27.761Z,5.57
2023-01-31T12:24:56.859Z,5.22
2023-01-31T12:26:14.238Z,3.80
2023-01-31T12:27:41.842Z,4.07
2023-01-31T12:29:14.545Z,5.18
2023-01-31T12:30:29.527Z,5.70
2023-01-31T12:31:55.271Z,7.72
2023-01-31T12:33:16.024Z,5.88
2023-01-31T12:35:08.096Z,5.00
2023-01-31T12:36:20.016Z,3.20
2023-01-31T12:37:45.603Z,3.47
2023-01-31T12:39:16.173Z,4.25
2023-01-31T12:40:33.700Z,4.10
2023-01-31T12:41:41.706Z,3.75
2023-01-31T12:42:56.014Z,3.50
2023-01-31T12:44:24.570Z,3.38
2023-01-31T12:45:34.268Z,3.63
2023-01-31T12:46:46.025Z,3.67
2023-01-31T12:48:12.607Z,3.05
2023-01-31T12:49:42.316Z,3.42
2023-01-31T12:50:56.816Z,3.60
2023-01-31T12:52:40.834Z,3.97
2023-01-31T12:54:25.326Z,3.83
2023-01-31T12:55:35.540Z,3.50
2023-01-31T12:57:07.419Z,3.50
2023-01-31T12:58:34.552Z,3.40
2023-01-31T12:59:58.850Z,4.20
2023-01-31T13:01:09.903Z,3.90
2023-01-31T13:02:31.058Z,4.63
2023-01-31T13:04:00.258Z,4.10
2023-01-31T13:05:17.035Z,4.07
2023-01-31T13:06:24.936Z,5.05
2023-01-31T13:07:33.703Z,5.30
2023-01-31T13:08:38.151Z,4.90
2023-01-31T13:09:41.115Z,6.63
2023-01-31T13:10:50.832Z,5.93
2023-01-31T13:12:15.912Z,5.78
2023-01-31T13:13:29.580Z,6.25
2023-01-31T13:14:37.826Z,5.38
2023-01-31T13:16:03.207Z,6.20
2023-01-31T13:17:10.978Z,6.10
2023-01-31T13:18:14.635Z,5.47
2023-01-31T13:19:40.080Z,4.93
2023-01-31T13:21:03.971Z,5.13
2023-01-31T13:22:17.250Z,3.65
2023-01-31T13:23:32.994Z,4.32
2023-01-31T13:24:42.949Z,3.97
2023-01-31T13:25:53.766Z,3.10
2023-01-31T13:27:21.688Z,3.47
2023-01-31T13:28:32.343Z,4.20
2023-01-31T13:29:41.119Z,4.00
2023-01-31T13:30:53.218Z,4.28
2023-01-31T13:32:28.265Z,3.78
2023-01-31T13:33:41.611Z,3.50
2023-01-31T13:35:02.227Z,3.97
2023-01-31T13:36:13.866Z,4.55
2023-01-31T13:37:28.177Z,3.55
2023-01-31T13:38:39.886Z,4.18
2023-01-31T13:39:47.975Z,4.05
2023-01-31T13:40:57.746Z,3.92
2023-01-31T13:42:00.170Z,4.70
2023-01-31T13:43:14.989Z,4.32
2023-01-31T13:44:17.683Z,5.40
2023-01-31T13:45:34.264Z,7.22
2023-01-31T13:47:01.624Z,5.65
2023-01-31T13:48:09.758Z,4.97
2023-01-31T13:49:37.910Z,5.47
2023-01-31T13:50:50.923Z,4.97
2023-01-31T13:51:59.866Z,4.07
2023-01-31T13:53:05.737Z,4.93
2023-01-31T13:54:11.444Z,4.05
2023-01-31T13:55:42.639Z,4.60
2023-01-31T13:56:50.684Z,5.63
2023-01-31T13:58:00.325Z,4.82
2023-01-31T13:59:03.403Z,3.95
2023-01-31T14:00:29.414Z,3.70
2023-01-31T14:01:35.542Z,3.75
2023-01-31T14:02:38.144Z,3.88
2023-01-31T14:04:12.391Z,3.30
2023-01-31T14:05:44.850Z,2.55
2023-01-31T14:06:54.427Z,3.00
2023-01-31T14:08:27.620Z,2.80
2023-01-31T14:09:37.211Z,3.53
2023-01-31T14:10:43.355Z,3.00
2023-01-31T14:11:46.541Z,3.20
2023-01-31T14:12:49.910Z,3.00
2023-01-31T14:14:17.259Z,4.05
2023-01-31T14:15:49.747Z,3.97
2023-01-31T14:16:53.270Z,4.20
2023-01-31T14:18:01.456Z,3.08
2023-01-31T14:19:31.193Z,3.17
2023-01-31T14:20:33.929Z,3.03
2023-01-31T14:21:36.414Z,2.90
2023-01-31T14:22:41.609Z,3.22
2023-01-31T14:23:47.477Z,3.05
2023-01-31T14:24:50.885Z,2.95
2023-01-31T14:25:53.355Z,3.20
2023-01-31T14:26:56.181Z,3.30
2023-01-31T14:27:58.793Z,3.97
2023-01-31T14:29:09.251Z,3.40
2023-01-31T14:30:24.018Z,4.10
2023-01-31T14:31:27.386Z,3.42
2023-01-31T14:33:10.308Z,4.40
2023-01-31T14:34:20.559Z,4.57
2023-01-31T14:35:40.419Z,4.53
2023-01-31T14:36:47.858Z,3.97
2023-01-31T14:38:19.300Z,3.45
2023-01-31T14:39:54.776Z,3.72
2023-01-31T14:41:22.995Z,18.08
2023-01-31T14:42:40.543Z,13.57
2023-01-31T14:43:52.076Z,10.32
2023-01-31T14:45:03.384Z,8.50
2023-01-31T14:46:13.197Z,7.68
2023-01-31T14:47:40.492Z,7.57
2023-01-31T14:49:07.637Z,7.05
2023-01-31T14:50:54.446Z,9.65
2023-01-31T14:52:24.552Z,13.27
2023-01-31T14:53:39.251Z,16.23
2023-01-31T14:55:00.621Z,14.80
2023-01-31T14:56:19.626Z,18.08
2023-01-31T14:57:33.299Z,14.77
2023-01-31T14:58:36.814Z,14.45
2023-01-31T14:59:54.604Z,12.52